createdAt,value
2022-11-12T00:00:24.225Z,95348.34
2022-11-12T00:01:25.685Z,95351.44
2022-11-12T00:02:27.164Z,95352.53
2022-11-12T00:03:28.661Z,95349.53
2022-11-12T00:04:30.123Z,95348.81
2022-11-12T00:05:31.918Z,95348.00
2022-11-12T00:06:33.447Z,95347.16
2022-11-12T00:07:35.174Z,95348.72
2022-11-12T00:08:37.941Z,95351.81
2022-11-12T00:09:39.355Z,95344.56
2022-11-12T00:10:40.788Z,95359.41
2022-11-12T00:11:42.220Z,95349.41
2022-11-12T00:12:43.994Z,95351.81
2022-11-12T00:13:45.402Z,95347.16
2022-11-12T00:14:46.817Z,95347.28
2022-11-12T00:15:48.299Z,95342.63
2022-11-12T00:16:49.731Z,95333.84
2022-11-12T00:17:51.180Z,95334.69
2022-11-12T00:18:52.621Z,95327.31
2022-11-12T00:19:54.416Z,95329.09
2022-11-12T00:20:55.846Z,95332.91
2022-11-12T00:21:57.310Z,95328.72
2022-11-12T00:22:58.785Z,95324.94
2022-11-12T00:24:01.632Z,95331.69
2022-11-12T00:25:03.948Z,95333.47
2022-11-12T00:26:05.363Z,95322.53
2022-11-12T00:27:06.797Z,95333.00
2022-11-12T00:28:10.202Z,95331.09
2022-11-12T00:29:11.641Z,95329.81
2022-11-12T00:30:13.425Z,95326.72
2022-11-12T00:31:14.828Z,95331.59
2022-11-12T00:32:16.302Z,95331.69
2022-11-12T00:33:17.737Z,95327.78
2022-11-12T00:34:19.168Z,95324.34
2022-11-12T00:35:20.641Z,95321.59
2022-11-12T00:36:22.082Z,95320.63
2022-11-12T00:37:23.706Z,95319.47
2022-11-12T00:38:25.420Z,95318.16
2022-11-12T00:39:29.080Z,95313.03
2022-11-12T00:40:30.578Z,95314.81
2022-11-12T00:41:31.994Z,95313.44
2022-11-12T00:42:33.427Z,95316.75
2022-11-12T00:43:34.899Z,95318.53
2022-11-12T00:44:36.412Z,95325.63
2022-11-12T00:45:37.823Z,95325.16
2022-11-12T00:46:39.244Z,95314.59
2022-11-12T00:47:40.679Z,95323.41
2022-11-12T00:48:42.077Z,95321.16
2022-11-12T00:49:43.497Z,95324.22
2022-11-12T00:50:45.000Z,95320.19
2022-11-12T00:51:46.536Z,95317.31
2022-11-12T00:52:47.975Z,95323.75
2022-11-12T00:53:50.110Z,95329.22
2022-11-12T00:54:52.839Z,95318.88
2022-11-12T00:55:59.256Z,95320.66
2022-11-12T00:57:00.696Z,95318.06
2022-11-12T00:58:02.099Z,95320.59
2022-11-12T00:59:03.743Z,95316.38
2022-11-12T01:00:06.988Z,95316.09
2022-11-12T01:01:10.584Z,95315.16
2022-11-12T01:02:12.050Z,95319.84
2022-11-12T01:03:13.496Z,95326.69
2022-11-12T01:04:14.993Z,95323.84
2022-11-12T01:05:16.668Z,95321.75
2022-11-12T01:06:21.685Z,95330.75
2022-11-12T01:07:23.122Z,95330.75
2022-11-12T01:08:25.045Z,95320.34
2022-11-12T01:09:27.200Z,95328.16
2022-11-12T01:10:29.972Z,95328.31
2022-11-12T01:11:31.434Z,95320.69
2022-11-12T01:12:33.096Z,95329.28
2022-11-12T01:13:34.625Z,95328.34
2022-11-12T01:14:36.329Z,95328.94
2022-11-12T01:15:41.057Z,95326.34
2022-11-12T01:16:42.550Z,95318.50
2022-11-12T01:17:44.089Z,95315.66
2022-11-12T01:18:46.831Z,95319.25
2022-11-12T01:19:48.295Z,95314.47
2022-11-12T01:20:49.738Z,95317.56
2022-11-12T01:21:51.160Z,95313.88
2022-11-12T01:22:52.621Z,95312.22
2022-11-12T01:23:54.371Z,95309.56
2022-11-12T01:24:55.793Z,95310.38
2022-11-12T01:25:58.914Z,95306.00
2022-11-12T01:27:00.351Z,95304.19
2022-11-12T01:28:01.775Z,95309.47
2022-11-12T01:29:04.235Z,95304.34
2022-11-12T01:30:06.613Z,95311.25
2022-11-12T01:31:13.516Z,95315.16
2022-11-12T01:32:14.946Z,95302.56
2022-11-12T01:33:16.445Z,95309.50
2022-11-12T01:34:17.859Z,95302.78
2022-11-12T01:35:19.295Z,95299.56
2022-11-12T01:36:21.411Z,95298.63
2022-11-12T01:37:23.922Z,95300.81
2022-11-12T01:38:25.617Z,95299.38
2022-11-12T01:39:27.256Z,95297.69
2022-11-12T01:40:28.678Z,95301.75
2022-11-12T01:41:33.828Z,95291.63
2022-11-12T01:42:35.381Z,95290.44
2022-11-12T01:43:37.237Z,95290.47
2022-11-12T01:44:42.231Z,95290.25
2022-11-12T01:45:47.966Z,95287.88
2022-11-12T01:47:00.781Z,95288.56
2022-11-12T01:48:02.703Z,95290.00
2022-11-12T01:49:07.122Z,95291.78
2022-11-12T01:50:15.852Z,95280.41
2022-11-12T01:51:19.236Z,95284.31
2022-11-12T01:52:24.950Z,95277.06
2022-11-12T01:53:30.045Z,95276.19
2022-11-12T01:54:31.731Z,95268.34
2022-11-12T01:55:37.207Z,95263.97
2022-11-12T01:56:42.529Z,95268.69
2022-11-12T01:57:52.184Z,95268.25
2022-11-12T01:58:58.223Z,95273.69
2022-11-12T02:00:04.460Z,95269.06
2022-11-12T02:01:06.268Z,95263.84
2022-11-12T02:02:08.561Z,95273.88
2022-11-12T02:03:15.246Z,95264.16
2022-11-12T02:04:17.107Z,95265.69
2022-11-12T02:05:20.844Z,95272.94
2022-11-12T02:06:23.376Z,95270.22
2022-11-12T02:07:25.626Z,95265.66
2022-11-12T02:08:29.096Z,95265.31
2022-11-12T02:09:30.953Z,95264.66
2022-11-12T02:10:32.781Z,95266.56
2022-11-12T02:11:34.238Z,95264.34
2022-11-12T02:12:37.920Z,95260.88
2022-11-12T02:13:40.078Z,95261.81
2022-11-12T02:14:41.549Z,95265.50
2022-11-12T02:15:43.122Z,95263.69
2022-11-12T02:16:46.172Z,95261.56
2022-11-12T02:17:47.761Z,95259.25
2022-11-12T02:18:49.160Z,95265.00
2022-11-12T02:19:52.183Z,95259.47
2022-11-12T02:20:55.227Z,95266.34
2022-11-12T02:21:58.032Z,95265.69
2022-11-12T02:22:59.471Z,95265.34
2022-11-12T02:24:02.851Z,95261.50
2022-11-12T02:25:05.022Z,95258.06
2022-11-12T02:26:06.619Z,95259.91
2022-11-12T02:27:09.147Z,95262.41
2022-11-12T02:28:10.616Z,95261.84
2022-11-12T02:29:12.146Z,95272.19
2022-11-12T02:30:13.644Z,95268.25
2022-11-12T02:31:15.574Z,95270.63
2022-11-12T02:32:17.090Z,95272.59
2022-11-12T02:33:18.527Z,95275.41
2022-11-12T02:34:20.035Z,95282.78
2022-11-12T02:35:21.500Z,95277.78
2022-11-12T02:36:23.436Z,95284.94
2022-11-12T02:37:26.240Z,95279.84
2022-11-12T02:38:27.922Z,95283.00
2022-11-12T02:39:29.525Z,95287.06
2022-11-12T02:40:30.982Z,95285.84
2022-11-12T02:41:32.408Z,95283.78
2022-11-12T02:42:33.825Z,95284.97
2022-11-12T02:43:35.263Z,95288.56
2022-11-12T02:44:36.760Z,95285.94
2022-11-12T02:45:38.222Z,95286.38
2022-11-12T02:46:39.683Z,95289.66
2022-11-12T02:47:41.148Z,95289.34
2022-11-12T02:48:42.605Z,95285.63
2022-11-12T02:49:44.032Z,95294.94
2022-11-12T02:50:47.472Z,95286.53
2022-11-12T02:51:48.911Z,95288.34
2022-11-12T02:52:51.692Z,95283.56
2022-11-12T02:53:53.158Z,95287.19
2022-11-12T02:54:54.587Z,95283.47
2022-11-12T02:55:56.037Z,95284.00
2022-11-12T02:56:57.480Z,95280.22
2022-11-12T02:57:59.109Z,95276.25
2022-11-12T02:59:00.827Z,95277.59
2022-11-12T03:00:02.393Z,95279.78
2022-11-12T03:01:04.075Z,95287.59
2022-11-12T03:02:05.530Z,95280.78
2022-11-12T03:03:07.031Z,95278.81
2022-11-12T03:04:08.584Z,95283.25
2022-11-12T03:05:10.979Z,95269.66
2022-11-12T03:06:12.505Z,95280.75
2022-11-12T03:07:14.007Z,95276.72
2022-11-12T03:08:16.769Z,95287.75
2022-11-12T03:09:18.180Z,95279.94
2022-11-12T03:10:19.588Z,95283.16
2022-11-12T03:11:21.017Z,95284.91
2022-11-12T03:12:22.455Z,95292.59
2022-11-12T03:13:23.941Z,95287.81
2022-11-12T03:14:25.824Z,95289.84
2022-11-12T03:15:28.641Z,95297.94
2022-11-12T03:16:30.082Z,95293.38
2022-11-12T03:17:31.519Z,95291.38
2022-11-12T03:18:33.480Z,95286.78
2022-11-12T03:19:34.924Z,95289.91
2022-11-12T03:20:36.371Z,95287.47
2022-11-12T03:21:37.831Z,95292.66
2022-11-12T03:22:39.951Z,95286.84
2022-11-12T03:23:42.690Z,95280.56
2022-11-12T03:24:44.123Z,95274.78
2022-11-12T03:25:45.570Z,95269.88
2022-11-12T03:26:47.043Z,95275.38
2022-11-12T03:27:48.467Z,95272.63
2022-11-12T03:28:51.151Z,95270.63
2022-11-12T03:29:52.548Z,95274.63
2022-11-12T03:30:57.318Z,95268.69
2022-11-12T03:31:58.732Z,95273.41
2022-11-12T03:33:00.162Z,95278.91
2022-11-12T03:34:01.587Z,95275.34
2022-11-12T03:35:03.213Z,95281.75
2022-11-12T03:36:05.361Z,95280.94
2022-11-12T03:37:06.793Z,95282.72
2022-11-12T03:38:08.272Z,95280.19
2022-11-12T03:39:11.174Z,95277.22
2022-11-12T03:40:12.751Z,95277.50
2022-11-12T03:41:14.200Z,95278.78
2022-11-12T03:42:15.644Z,95273.31
2022-11-12T03:43:17.076Z,95274.63
2022-11-12T03:44:18.504Z,95275.56
2022-11-12T03:45:21.911Z,95271.75
2022-11-12T03:46:23.349Z,95281.03
2022-11-12T03:47:24.804Z,95277.13
2022-11-12T03:48:26.531Z,95273.19
2022-11-12T03:49:28.107Z,95279.97
2022-11-12T03:50:29.916Z,95276.28
2022-11-12T03:51:31.351Z,95276.91
2022-11-12T03:52:32.800Z,95272.88
2022-11-12T03:53:34.234Z,95278.78
2022-11-12T03:54:37.029Z,95273.91
2022-11-12T03:55:38.595Z,95274.97
2022-11-12T03:56:40.006Z,95277.63
2022-11-12T03:57:41.627Z,95282.13
2022-11-12T03:58:43.048Z,95277.16
2022-11-12T03:59:44.468Z,95278.69
2022-11-12T04:00:45.949Z,95277.84
2022-11-12T04:01:47.365Z,95278.34
2022-11-12T04:02:48.869Z,95277.41
2022-11-12T04:03:50.379Z,95277.81
2022-11-12T04:04:51.802Z,95278.59
2022-11-12T04:05:53.253Z,95280.94
2022-11-12T04:06:54.760Z,95279.88
2022-11-12T04:07:58.267Z,95279.63
2022-11-12T04:08:59.683Z,95272.25
2022-11-12T04:10:02.484Z,95277.34
2022-11-12T04:11:06.054Z,95272.97
2022-11-12T04:12:07.491Z,95270.81
2022-11-12T04:13:08.926Z,95273.41
2022-11-12T04:14:10.351Z,95270.72
2022-11-12T04:15:11.835Z,95261.19
2022-11-12T04:16:15.700Z,95267.88
2022-11-12T04:17:17.131Z,95265.72
2022-11-12T04:18:18.570Z,95268.56
2022-11-12T04:19:19.988Z,95275.47
2022-11-12T04:20:21.450Z,95276.19
2022-11-12T04:21:23.885Z,95271.31
2022-11-12T04:22:25.305Z,95274.16
2022-11-12T04:23:26.743Z,95279.28
2022-11-12T04:24:30.603Z,95279.63
2022-11-12T04:25:33.342Z,95279.19
2022-11-12T04:26:34.779Z,95277.03
2022-11-12T04:27:36.201Z,95276.69
2022-11-12T04:28:37.647Z,95279.19
2022-11-12T04:29:39.191Z,95274.31
2022-11-12T04:30:40.611Z,95272.59
2022-11-12T04:31:42.061Z,95272.63
2022-11-12T04:32:47.882Z,95269.38
2022-11-12T04:33:49.316Z,95263.13
2022-11-12T04:34:50.973Z,95262.88
2022-11-12T04:35:52.477Z,95260.97
2022-11-12T04:36:53.904Z,95265.00
2022-11-12T04:37:55.353Z,95264.78
2022-11-12T04:38:56.816Z,95261.28
2022-11-12T04:39:58.240Z,95263.97
2022-11-12T04:41:01.003Z,95265.25
2022-11-12T04:42:02.486Z,95269.06
2022-11-12T04:43:05.168Z,95266.09
2022-11-12T04:44:07.010Z,95263.97
2022-11-12T04:45:10.062Z,95262.09
2022-11-12T04:46:11.537Z,95268.00
2022-11-12T04:47:12.979Z,95268.94
2022-11-12T04:48:14.535Z,95266.44
2022-11-12T04:49:15.976Z,95262.19
2022-11-12T04:50:18.753Z,95260.63
2022-11-12T04:51:20.173Z,95264.94
2022-11-12T04:52:21.778Z,95263.00
2022-11-12T04:53:23.535Z,95266.97
2022-11-12T04:54:24.946Z,95267.91
2022-11-12T04:55:26.411Z,95269.09
2022-11-12T04:56:29.183Z,95259.69
2022-11-12T04:57:30.609Z,95266.94
2022-11-12T04:58:32.041Z,95261.94
2022-11-12T04:59:33.481Z,95261.72
2022-11-12T05:00:35.006Z,95265.63
2022-11-12T05:01:36.465Z,95264.34
2022-11-12T05:02:37.905Z,95259.34
2022-11-12T05:03:39.336Z,95263.84
2022-11-12T05:04:40.802Z,95271.34
2022-11-12T05:05:42.517Z,95265.75
2022-11-12T05:06:43.989Z,95269.28
2022-11-12T05:07:45.475Z,95273.13
2022-11-12T05:08:46.883Z,95274.28
2022-11-12T05:09:48.507Z,95266.09
2022-11-12T05:10:49.976Z,95268.78
2022-11-12T05:11:53.552Z,95275.47
2022-11-12T05:12:55.060Z,95277.59
2022-11-12T05:13:56.581Z,95283.06
2022-11-12T05:14:58.010Z,95273.69
2022-11-12T05:15:59.423Z,95272.75
2022-11-12T05:17:01.019Z,95281.44
2022-11-12T05:18:02.518Z,95281.31
2022-11-12T05:19:04.181Z,95278.34
2022-11-12T05:20:06.770Z,95276.47
2022-11-12T05:21:08.188Z,95279.56
2022-11-12T05:22:21.892Z,95281.56
2022-11-12T05:23:31.330Z,95279.63
2022-11-12T05:24:42.606Z,95280.47
2022-11-12T05:25:44.721Z,95285.31
2022-11-12T05:26:46.155Z,95286.56
2022-11-12T05:27:48.905Z,95285.13
2022-11-12T05:28:50.391Z,95283.84
2022-11-12T05:29:51.807Z,95284.41
2022-11-12T05:30:53.215Z,95290.47
2022-11-12T05:31:54.980Z,95278.59
2022-11-12T05:32:56.418Z,95279.81
2022-11-12T05:33:58.028Z,95279.31
2022-11-12T05:34:59.448Z,95277.41
2022-11-12T05:36:00.883Z,95285.72
2022-11-12T05:37:04.106Z,95282.16
2022-11-12T05:38:05.515Z,95283.13
2022-11-12T05:39:07.180Z,95283.09
2022-11-12T05:40:09.669Z,95282.66
2022-11-12T05:41:12.963Z,95280.88
2022-11-12T05:42:16.262Z,95277.63
2022-11-12T05:43:19.016Z,95289.50
2022-11-12T05:44:20.531Z,95286.44
2022-11-12T05:45:22.002Z,95287.03
2022-11-12T05:46:23.577Z,95291.53
2022-11-12T05:47:25.030Z,95285.50
2022-11-12T05:48:26.937Z,95282.88
2022-11-12T05:49:28.824Z,95285.84
2022-11-12T05:50:39.771Z,95290.44
2022-11-12T05:51:46.831Z,95282.34
2022-11-12T05:52:48.241Z,95291.78
2022-11-12T05:53:49.793Z,95285.13
2022-11-12T05:54:51.229Z,95285.13
2022-11-12T05:55:52.716Z,95290.94
2022-11-12T05:56:54.147Z,95288.94
2022-11-12T05:57:55.587Z,95287.41
2022-11-12T05:58:58.363Z,95291.53
2022-11-12T05:59:59.796Z,95286.19
2022-11-12T06:01:01.276Z,95289.50
2022-11-12T06:02:02.752Z,95287.94
2022-11-12T06:03:04.451Z,95294.91
2022-11-12T06:04:05.897Z,95295.19
2022-11-12T06:05:08.195Z,95290.38
2022-11-12T06:06:09.823Z,95301.53
2022-11-12T06:07:11.345Z,95300.41
2022-11-12T06:08:12.905Z,95292.66
2022-11-12T06:09:14.384Z,95301.81
2022-11-12T06:10:20.295Z,95297.78
2022-11-12T06:11:22.168Z,95296.41
2022-11-12T06:12:23.604Z,95296.88
2022-11-12T06:13:25.708Z,95295.19
2022-11-12T06:14:28.482Z,95287.75
2022-11-12T06:15:31.925Z,95295.09
2022-11-12T06:16:35.349Z,95294.38
2022-11-12T06:17:36.780Z,95299.84
2022-11-12T06:18:38.456Z,95291.53
2022-11-12T06:19:39.895Z,95295.22
2022-11-12T06:20:41.326Z,95290.91
2022-11-12T06:21:42.739Z,95300.16
2022-11-12T06:22:44.318Z,95297.38
2022-11-12T06:23:45.950Z,95292.25
2022-11-12T06:24:47.370Z,95290.09
2022-11-12T06:25:48.823Z,95289.16
2022-11-12T06:26:50.291Z,95295.34
2022-11-12T06:27:51.936Z,95284.41
2022-11-12T06:28:53.883Z,95285.38
2022-11-12T06:29:57.192Z,95295.97
2022-11-12T06:30:58.608Z,95281.94
2022-11-12T06:32:00.088Z,95288.56
2022-11-12T06:33:01.525Z,95290.72
2022-11-12T06:34:02.957Z,95286.66
2022-11-12T06:35:04.956Z,95281.31
2022-11-12T06:36:07.643Z,95285.59
2022-11-12T06:37:09.071Z,95279.31
2022-11-12T06:38:10.495Z,95287.03
2022-11-12T06:39:12.155Z,95279.91
2022-11-12T06:40:13.826Z,95284.06
2022-11-12T06:41:15.446Z,95279.19
2022-11-12T06:42:16.952Z,95273.25
2022-11-12T06:43:18.491Z,95276.59
2022-11-12T06:44:22.361Z,95276.22
2022-11-12T06:45:25.548Z,95281.44
2022-11-12T06:46:27.006Z,95289.16
2022-11-12T06:47:28.433Z,95289.75
2022-11-12T06:48:30.326Z,95291.78
2022-11-12T06:49:31.846Z,95285.25
2022-11-12T06:50:33.439Z,95293.59
2022-11-12T06:51:34.882Z,95293.09
2022-11-12T06:52:36.579Z,95291.19
2022-11-12T06:53:38.160Z,95273.63
2022-11-12T06:54:39.583Z,95286.56
2022-11-12T06:55:41.041Z,95282.28
2022-11-12T06:56:42.548Z,95278.81
2022-11-12T06:57:43.994Z,95281.22
2022-11-12T06:58:45.439Z,95285.16
2022-11-12T06:59:46.839Z,95292.50
2022-11-12T07:00:49.664Z,95283.13
2022-11-12T07:01:51.119Z,95286.56
2022-11-12T07:02:52.588Z,95287.03
2022-11-12T07:03:54.466Z,95286.66
2022-11-12T07:04:55.892Z,95291.91
2022-11-12T07:05:57.353Z,95287.75
2022-11-12T07:06:58.847Z,95284.88
2022-11-12T07:08:00.329Z,95287.16
2022-11-12T07:09:02.007Z,95283.00
2022-11-12T07:10:03.951Z,95292.50
2022-11-12T07:11:05.919Z,95286.22
2022-11-12T07:12:07.618Z,95288.94
2022-11-12T07:13:09.069Z,95294.06
2022-11-12T07:14:10.607Z,95301.66
2022-11-12T07:15:12.056Z,95296.91
2022-11-12T07:16:15.021Z,95301.28
2022-11-12T07:17:16.477Z,95303.44
2022-11-12T07:18:17.918Z,95295.47
2022-11-12T07:19:19.357Z,95299.75
2022-11-12T07:20:20.811Z,95294.88
2022-11-12T07:21:22.237Z,95299.88
2022-11-12T07:22:23.699Z,95301.91
2022-11-12T07:23:25.819Z,95295.50
2022-11-12T07:24:27.225Z,95297.50
2022-11-12T07:25:28.687Z,95303.44
2022-11-12T07:26:30.120Z,95296.78
2022-11-12T07:27:31.636Z,95294.88
2022-11-12T07:28:33.346Z,95294.28
2022-11-12T07:29:47.496Z,95296.66
2022-11-12T07:30:55.043Z,95286.91
2022-11-12T07:31:57.809Z,95295.38
2022-11-12T07:32:59.285Z,95295.47
2022-11-12T07:34:00.707Z,95300.72
2022-11-12T07:35:02.146Z,95299.25
2022-11-12T07:36:05.662Z,95300.19
2022-11-12T07:37:07.458Z,95297.25
2022-11-12T07:38:08.853Z,95300.16
2022-11-12T07:39:10.365Z,95296.28
2022-11-12T07:40:12.322Z,95292.84
2022-11-12T07:41:15.447Z,95291.31
2022-11-12T07:42:16.879Z,95290.38
2022-11-12T07:43:18.287Z,95289.31
2022-11-12T07:44:19.756Z,95299.03
2022-11-12T07:45:21.234Z,95288.94
2022-11-12T07:46:25.116Z,95291.19
2022-11-12T07:47:28.069Z,95285.75
2022-11-12T07:48:30.437Z,95284.88
2022-11-12T07:49:31.901Z,95282.28
2022-11-12T07:50:33.405Z,95281.56
2022-11-12T07:51:34.888Z,95279.91
2022-11-12T07:52:36.606Z,95290.69
2022-11-12T07:53:38.219Z,95292.16
2022-11-12T07:54:39.665Z,95289.63
2022-11-12T07:55:41.097Z,95286.19
2022-11-12T07:56:42.579Z,95286.44
2022-11-12T07:57:44.028Z,95289.97
2022-11-12T07:58:46.145Z,95288.22
2022-11-12T07:59:47.952Z,95293.09
2022-11-12T08:00:49.830Z,95287.88
2022-11-12T08:01:51.299Z,95294.53
2022-11-12T08:02:54.127Z,95289.28
2022-11-12T08:03:55.740Z,95288.94
2022-11-12T08:04:57.148Z,95285.00
2022-11-12T08:06:00.406Z,95289.28
2022-11-12T08:07:02.075Z,95291.66
2022-11-12T08:08:04.018Z,95284.16
2022-11-12T08:09:07.259Z,95287.97
2022-11-12T08:10:09.906Z,95292.13
2022-11-12T08:11:11.347Z,95286.16
2022-11-12T08:12:12.800Z,95292.34
2022-11-12T08:13:14.692Z,95289.03
2022-11-12T08:14:16.200Z,95289.25
2022-11-12T08:15:17.653Z,95290.53
2022-11-12T08:16:19.343Z,95290.78
2022-11-12T08:17:20.765Z,95285.63
2022-11-12T08:18:23.731Z,95286.25
2022-11-12T08:19:25.232Z,95298.28
2022-11-12T08:20:26.736Z,95297.19
2022-11-12T08:21:28.194Z,95291.59
2022-11-12T08:22:31.251Z,95293.38
2022-11-12T08:23:32.770Z,95295.50
2022-11-12T08:24:34.205Z,95301.44
2022-11-12T08:25:35.939Z,95295.00
2022-11-12T08:26:37.356Z,95294.06
2022-11-12T08:27:38.772Z,95294.44
2022-11-12T08:28:40.363Z,95288.25
2022-11-12T08:29:41.765Z,95290.59
2022-11-12T08:30:43.227Z,95293.31
2022-11-12T08:31:45.997Z,95294.59
2022-11-12T08:32:47.512Z,95288.84
2022-11-12T08:33:50.477Z,95295.59
2022-11-12T08:34:51.919Z,95298.84
2022-11-12T08:35:53.333Z,95300.44
2022-11-12T08:36:54.740Z,95296.88
2022-11-12T08:37:59.523Z,95292.00
2022-11-12T08:39:00.985Z,95300.41
2022-11-12T08:40:02.422Z,95300.09
2022-11-12T08:41:06.239Z,95297.47
2022-11-12T08:42:07.660Z,95293.81
2022-11-12T08:43:10.567Z,95298.03
2022-11-12T08:44:11.977Z,95292.97
2022-11-12T08:45:13.447Z,95298.53
2022-11-12T08:46:14.873Z,95300.31
2022-11-12T08:47:16.327Z,95294.00
2022-11-12T08:48:17.815Z,95297.84
2022-11-12T08:49:20.577Z,95294.06
2022-11-12T08:50:22.026Z,95296.06
2022-11-12T08:51:23.500Z,95302.81
2022-11-12T08:52:24.929Z,95291.63
2022-11-12T08:53:26.403Z,95293.91
2022-11-12T08:54:27.865Z,95296.38
2022-11-12T08:55:29.582Z,95301.81
2022-11-12T08:56:31.038Z,95294.28
2022-11-12T08:57:32.518Z,95307.13
2022-11-12T08:58:34.119Z,95298.03
2022-11-12T08:59:35.549Z,95295.59
2022-11-12T09:00:39.119Z,95305.31
2022-11-12T09:01:40.735Z,95299.66
2022-11-12T09:02:42.230Z,95299.28
2022-11-12T09:03:43.672Z,95300.41
2022-11-12T09:04:46.470Z,95301.81
2022-11-12T09:05:48.759Z,95309.56
2022-11-12T09:06:53.888Z,95302.78
2022-11-12T09:07:58.941Z,95306.72
2022-11-12T09:09:00.428Z,95297.56
2022-11-12T09:10:01.884Z,95302.94
2022-11-12T09:11:04.372Z,95305.59
2022-11-12T09:12:15.043Z,95305.06
2022-11-12T09:13:20.012Z,95310.63
2022-11-12T09:14:21.609Z,95303.94
2022-11-12T09:15:37.388Z,95302.81
2022-11-12T09:16:39.213Z,95300.28
2022-11-12T09:17:40.654Z,95298.63
2022-11-12T09:18:42.095Z,95297.31
2022-11-12T09:19:43.521Z,95300.09
2022-11-12T09:20:46.389Z,95293.47
2022-11-12T09:21:47.811Z,95294.28
2022-11-12T09:22:49.395Z,95295.34
2022-11-12T09:23:50.852Z,95293.16
2022-11-12T09:24:52.257Z,95288.53
2022-11-12T09:25:55.192Z,95288.78
2022-11-12T09:26:56.823Z,95290.03
2022-11-12T09:27:58.266Z,95287.13
2022-11-12T09:28:59.680Z,95292.97
2022-11-12T09:30:01.097Z,95296.56
2022-11-12T09:31:02.643Z,95293.44
2022-11-12T09:32:04.336Z,95300.22
2022-11-12T09:33:05.782Z,95295.16
2022-11-12T09:34:07.217Z,95298.22
2022-11-12T09:35:08.990Z,95302.22
2022-11-12T09:36:11.794Z,95295.53
2022-11-12T09:37:13.227Z,95296.31
2022-11-12T09:38:15.425Z,95304.66
2022-11-12T09:39:17.024Z,95297.75
2022-11-12T09:40:20.075Z,95305.50
2022-11-12T09:41:29.604Z,95304.13
2022-11-12T09:42:33.695Z,95305.50
2022-11-12T09:43:38.944Z,95305.00
2022-11-12T09:44:43.716Z,95298.72
2022-11-12T09:46:06.328Z,95303.56
2022-11-12T09:47:15.018Z,95304.75
2022-11-12T09:48:21.493Z,95306.25
2022-11-12T09:49:27.697Z,95301.34
2022-11-12T09:50:31.789Z,95306.53
2022-11-12T09:51:39.154Z,95301.56
2022-11-12T09:52:44.032Z,95301.41
2022-11-12T09:53:53.631Z,95298.09
2022-11-12T09:55:01.918Z,95297.75
2022-11-12T09:56:06.890Z,95295.28
2022-11-12T09:57:11.209Z,95298.72
2022-11-12T09:58:13.263Z,95302.97
2022-11-12T09:59:15.005Z,95295.84
2022-11-12T10:00:17.851Z,95296.00
2022-11-12T10:01:24.593Z,95290.22
2022-11-12T10:02:32.652Z,95295.59
2022-11-12T10:03:39.924Z,95287.91
2022-11-12T10:05:16.803Z,95293.81
2022-11-12T10:06:21.583Z,95291.81
2022-11-12T10:07:38.883Z,95295.53
2022-11-12T10:08:48.221Z,95290.34
2022-11-12T10:10:01.868Z,95293.69
2022-11-12T10:11:18.533Z,95290.53
2022-11-12T10:12:26.879Z,95288.09
2022-11-12T10:13:41.899Z,95292.59
2022-11-12T10:14:54.693Z,95293.03
2022-11-12T10:16:11.774Z,95292.78
2022-11-12T10:17:27.645Z,95282.63
2022-11-12T10:18:41.512Z,95284.78
2022-11-12T10:19:55.581Z,95282.13
2022-11-12T10:21:03.161Z,95281.38
2022-11-12T10:22:18.291Z,95282.44
2022-11-12T10:23:24.746Z,95287.16
2022-11-12T10:24:33.534Z,95274.31
2022-11-12T10:25:35.956Z,95283.66
2022-11-12T10:26:39.279Z,95278.97
2022-11-12T10:27:42.223Z,95280.91
2022-11-12T10:28:47.529Z,95278.59
2022-11-12T10:29:54.336Z,95276.56
2022-11-12T10:31:00.673Z,95269.69
2022-11-12T10:32:02.717Z,95275.03
2022-11-12T10:33:04.259Z,95271.19
2022-11-12T10:34:18.103Z,95267.44
2022-11-12T10:35:21.352Z,95270.81
2022-11-12T10:36:29.695Z,95268.47
2022-11-12T10:37:41.273Z,95267.38
2022-11-12T10:38:48.532Z,95272.56
2022-11-12T10:39:50.647Z,95272.88
2022-11-12T10:40:52.101Z,95272.16
2022-11-12T10:42:02.700Z,95272.03
2022-11-12T10:43:06.289Z,95267.56
2022-11-12T10:44:14.271Z,95272.22
2022-11-12T10:45:20.548Z,95269.69
2022-11-12T10:46:23.904Z,95273.75
2022-11-12T10:47:28.251Z,95274.44
2022-11-12T10:48:31.557Z,95265.38
2022-11-12T10:49:33.185Z,95267.06
2022-11-12T10:50:37.093Z,95262.44
2022-11-12T10:51:38.626Z,95273.44
2022-11-12T10:52:52.236Z,95266.66
2022-11-12T10:53:55.134Z,95267.75
2022-11-12T10:55:06.704Z,95266.69
2022-11-12T10:56:26.492Z,95264.44
2022-11-12T10:57:28.051Z,95272.16
2022-11-12T10:58:30.093Z,95267.09
2022-11-12T10:59:31.713Z,95267.81
2022-11-12T11:00:33.762Z,95266.94
2022-11-12T11:01:36.223Z,95260.94
2022-11-12T11:02:45.512Z,95265.28
2022-11-12T11:03:53.970Z,95271.13
2022-11-12T11:04:55.461Z,95261.59
2022-11-12T11:06:00.751Z,95270.38
2022-11-12T11:07:05.037Z,95266.28
2022-11-12T11:08:10.356Z,95265.13
2022-11-12T11:09:18.239Z,95261.91
2022-11-12T11:10:24.311Z,95261.31
2022-11-12T11:11:27.675Z,95253.22
2022-11-12T11:12:31.135Z,95260.94
2022-11-12T11:13:32.561Z,95256.19
2022-11-12T11:14:34.929Z,95263.56
2022-11-12T11:15:37.741Z,95262.19
2022-11-12T11:16:49.461Z,95262.50
2022-11-12T11:17:50.923Z,95265.66
2022-11-12T11:18:55.894Z,95263.59
2022-11-12T11:19:57.409Z,95254.88
2022-11-12T11:21:08.375Z,95262.34
2022-11-12T11:22:29.680Z,95265.25
2022-11-12T11:23:37.490Z,95259.38
2022-11-12T11:24:49.493Z,95246.97
2022-11-12T11:25:53.003Z,95251.91
2022-11-12T11:27:01.060Z,95246.56
2022-11-12T11:28:15.862Z,95241.91
2022-11-12T11:29:34.923Z,95244.41
2022-11-12T11:30:38.469Z,95245.63
2022-11-12T11:31:51.916Z,95243.28
2022-11-12T11:33:18.403Z,95237.94
2022-11-12T11:34:33.261Z,95242.31
2022-11-12T11:35:52.148Z,95233.53
2022-11-12T11:37:03.726Z,95239.91
2022-11-12T11:38:31.621Z,95235.69
2022-11-12T11:39:45.402Z,95238.97
2022-11-12T11:40:55.881Z,95235.94
2022-11-12T11:42:08.150Z,95238.63
2022-11-12T11:43:38.273Z,95237.84
2022-11-12T11:44:47.624Z,95247.25
2022-11-12T11:46:02.302Z,95244.34
2022-11-12T11:47:17.480Z,95241.88
2022-11-12T11:48:30.823Z,95237.63
2022-11-12T11:49:46.870Z,95240.84
2022-11-12T11:50:59.369Z,95239.19
2022-11-12T11:52:11.939Z,95237.00
2022-11-12T11:53:23.541Z,95237.31
2022-11-12T11:54:51.416Z,95230.06
2022-11-12T11:55:58.461Z,95239.16
2022-11-12T11:57:03.677Z,95231.41
2022-11-12T11:58:14.274Z,95230.31
2022-11-12T11:59:37.312Z,95227.44
2022-11-12T12:00:47.212Z,95222.19
2022-11-12T12:02:03.426Z,95219.31
2022-11-12T12:03:17.760Z,95219.31
2022-11-12T12:04:36.240Z,95219.75
2022-11-12T12:05:43.726Z,95225.94
2022-11-12T12:06:54.633Z,95226.38
2022-11-12T12:08:02.214Z,95214.22
2022-11-12T12:09:18.705Z,95209.09
2022-11-12T12:10:46.282Z,95220.56
2022-11-12T12:11:58.016Z,95203.56
2022-11-12T12:13:08.781Z,95208.81
2022-11-12T12:14:23.303Z,95204.38
2022-11-12T12:15:47.631Z,95217.38
2022-11-12T12:16:56.720Z,95207.13
2022-11-12T12:18:09.835Z,95214.31
2022-11-12T12:19:27.561Z,95209.31
2022-11-12T12:20:35.735Z,95208.25
2022-11-12T12:21:43.539Z,95208.66
2022-11-12T12:22:48.977Z,95200.09
2022-11-12T12:23:53.425Z,95201.47
2022-11-12T12:24:57.774Z,95209.78
2022-11-12T12:26:02.764Z,95203.28
2022-11-12T12:27:13.212Z,95198.69